Time;durP1;ratioP1;P1;durP2;ratioP2;P2;SDS_P1;SDS_P2;PMS_P1;PMS_P2;Temp;Humidity;BMP_temperature;BMP_pressure;BME280_temperature;BME280_humidity;BME280_pressure;Samples;Min_cycle;Max_cycle;Signal;HPM_P1;HPM_P2
2022/12/06 00:01:04;;;;;;;;;32.25;21.75;;;;;;;;5047208;28;62216;-77
2022/12/06 00:03:29;;;;;;;;;35.50;28.75;;;;;;;;5064473;28;61889;-78
2022/12/06 00:05:59;;;;;;;;;29.75;27.75;;;;;;;;5065107;28;62159;-77
2022/12/06 00:08:25;;;;;;;;;42.50;26.50;;;;;;;;5046956;28;62030;-77
2022/12/06 00:10:50;;;;;;;;;33.75;26.25;;;;;;;;5065060;28;62028;-77
2022/12/06 00:13:15;;;;;;;;;42.75;29.75;;;;;;;;5046213;28;64227;-77
2022/12/06 00:15:41;;;;;;;;;47.25;27.50;;;;;;;;5064457;28;62164;-77
2022/12/06 00:18:06;;;;;;;;;33.75;26.00;;;;;;;;5064770;28;61898;-77
2022/12/06 00:20:32;;;;;;;;;33.00;27.25;;;;;;;;5064785;28;61751;-77
2022/12/06 00:22:57;;;;;;;;;36.75;25.50;;;;;;;;5045535;28;63294;-77
2022/12/06 00:25:23;;;;;;;;;32.00;28.50;;;;;;;;5064819;28;61916;-77
2022/12/06 00:27:49;;;;;;;;;30.00;22.25;;;;;;;;5046626;28;61873;-77
2022/12/06 00:30:14;;;;;;;;;39.00;25.00;;;;;;;;5046646;28;62159;-77
2022/12/06 00:32:39;;;;;;;;;35.00;21.50;;;;;;;;5063857;28;61851;-77
2022/12/06 00:35:05;;;;;;;;;31.50;26.25;;;;;;;;5046508;28;61779;-77
2022/12/06 00:37:30;;;;;;;;;34.00;26.75;;;;;;;;5046156;28;62692;-77
2022/12/06 00:39:55;;;;;;;;;30.75;24.75;;;;;;;;5046553;28;61815;-77
2022/12/06 00:42:21;;;;;;;;;32.25;26.75;;;;;;;;5046164;28;63475;-77
2022/12/06 00:44:46;;;;;;;;;51.25;29.00;;;;;;;;5064151;28;62022;-77
2022/12/06 00:47:11;;;;;;;;;32.00;23.50;;;;;;;;5064717;28;61978;-77
2022/12/06 00:49:37;;;;;;;;;41.00;29.00;;;;;;;;5046439;28;61845;-77
2022/12/06 00:52:02;;;;;;;;;35.00;25.75;;;;;;;;5063150;28;62046;-77
2022/12/06 00:54:27;;;;;;;;;35.25;23.00;;;;;;;;5064385;28;61851;-77
2022/12/06 00:56:53;;;;;;;;;36.25;29.50;;;;;;;;5044914;28;61950;-77
2022/12/06 00:59:18;;;;;;;;;47.00;26.00;;;;;;;;5064516;28;61714;-78
2022/12/06 01:01:43;;;;;;;;;40.75;25.50;;;;;;;;5063681;28;61954;-77
2022/12/06 01:04:09;;;;;;;;;41.50;27.50;;;;;;;;5045701;28;61807;-77
2022/12/06 01:06:35;;;;;;;;;43.00;28.50;;;;;;;;5063990;28;61770;-77
2022/12/06 01:09:02;;;;;;;;;36.50;27.00;;;;;;;;5079926;28;62168;-77
2022/12/06 01:11:28;;;;;;;;;31.25;24.75;;;;;;;;5063269;28;62016;-77
2022/12/06 01:13:54;;;;;;;;;38.00;29.75;;;;;;;;5063856;28;61902;-77
2022/12/06 01:16:24;;;;;;;;;37.25;30.50;;;;;;;;5079604;28;61849;-76
2022/12/06 01:18:54;;;;;;;;;35.75;25.00;;;;;;;;5079536;28;62082;-77
2022/12/06 01:21:20;;;;;;;;;44.25;30.00;;;;;;;;5062665;28;61748;-77
2022/12/06 01:23:46;;;;;;;;;29.25;26.50;;;;;;;;5064092;28;61800;-77
2022/12/06 01:26:13;;;;;;;;;29.00;25.50;;;;;;;;5063688;28;61753;-76
2022/12/06 01:28:39;;;;;;;;;35.00;24.50;;;;;;;;5045844;28;61739;-77
2022/12/06 01:31:07;;;;;;;;;33.50;26.25;;;;;;;;5063215;28;61929;-77
2022/12/06 01:33:32;;;;;;;;;37.00;27.00;;;;;;;;5063556;28;61878;-76
2022/12/06 01:35:57;;;;;;;;;38.00;24.50;;;;;;;;5063718;28;61923;-77
2022/12/06 01:38:23;;;;;;;;;30.00;22.75;;;;;;;;5045179;28;61991;-77
2022/12/06 01:40:48;;;;;;;;;37.50;26.75;;;;;;;;5063150;28;61611;-77
2022/12/06 01:43:35;;;;;;;;;27.75;24.25;;;;;;;;5063536;28;62056;-77
2022/12/06 01:46:02;;;;;;;;;31.00;19.75;;;;;;;;5063676;28;61956;-77
2022/12/06 01:48:28;;;;;;;;;32.25;24.00;;;;;;;;5063546;28;62008;-77
2022/12/06 01:50:55;;;;;;;;;30.00;21.50;;;;;;;;5063181;28;62816;-77
2022/12/06 01:53:21;;;;;;;;;33.75;20.25;;;;;;;;5044896;28;62709;-77
2022/12/06 01:55:47;;;;;;;;;27.75;23.25;;;;;;;;5045004;28;61871;-76
2022/12/06 01:58:16;;;;;;;;;34.50;28.00;;;;;;;;5063586;28;61890;-77
2022/12/06 02:00:42;;;;;;;;;28.50;23.50;;;;;;;;5044731;28;63635;-77
2022/12/06 02:03:09;;;;;;;;;34.00;27.25;;;;;;;;5045124;28;61870;-77
2022/12/06 02:05:35;;;;;;;;;36.50;28.00;;;;;;;;5063331;28;61733;-77
2022/12/06 02:08:01;;;;;;;;;30.00;24.75;;;;;;;;5062858;28;61901;-76
2022/12/06 02:10:26;;;;;;;;;33.00;26.25;;;;;;;;5062374;28;62812;-77
2022/12/06 02:12:54;;;;;;;;;27.00;22.50;;;;;;;;5063271;28;61861;-77
2022/12/06 02:15:22;;;;;;;;;44.00;26.50;;;;;;;;5044592;28;61847;-77
2022/12/06 02:17:58;;;;;;;;;37.50;25.25;;;;;;;;5063533;28;61746;-77
2022/12/06 02:20:40;;;;;;;;;44.00;32.75;;;;;;;;5062108;28;62181;-76
2022/12/06 02:23:21;;;;;;;;;34.75;27.50;;;;;;;;5062839;28;61836;-77
2022/12/06 02:25:49;;;;;;;;;30.50;22.50;;;;;;;;5062544;28;62063;-77
2022/12/06 02:28:23;;;;;;;;;42.25;33.25;;;;;;;;5063321;28;61846;-77
2022/12/06 02:30:48;;;;;;;;;41.00;33.00;;;;;;;;5062252;28;62630;-77
2022/12/06 02:33:32;;;;;;;;;35.00;26.75;;;;;;;;5062504;28;61895;-77
2022/12/06 02:36:06;;;;;;;;;42.25;25.75;;;;;;;;5062936;28;61877;-77
2022/12/06 02:38:31;;;;;;;;;47.00;26.75;;;;;;;;5062673;28;61943;-76
2022/12/06 02:40:59;;;;;;;;;40.00;25.50;;;;;;;;5062275;28;62758;-77
2022/12/06 02:43:31;;;;;;;;;32.25;25.50;;;;;;;;5062661;28;61851;-77
2022/12/06 02:45:59;;;;;;;;;30.50;26.50;;;;;;;;5062942;28;62325;-77
2022/12/06 02:48:25;;;;;;;;;32.50;25.25;;;;;;;;5062991;28;61798;-77
2022/12/06 02:50:59;;;;;;;;;40.50;28.75;;;;;;;;5061815;28;62914;-77
2022/12/06 02:53:26;;;;;;;;;40.50;28.50;;;;;;;;5043861;28;61951;-76
2022/12/06 02:55:51;;;;;;;;;44.25;29.25;;;;;;;;5044241;28;61842;-77
2022/12/06 02:58:17;;;;;;;;;33.75;24.25;;;;;;;;5062760;28;61966;-76
2022/12/06 03:00:43;;;;;;;;;43.50;29.25;;;;;;;;5061831;28;62013;-76
2022/12/06 03:03:11;;;;;;;;;32.00;25.50;;;;;;;;5044439;28;61812;-77
2022/12/06 03:05:46;;;;;;;;;29.75;25.50;;;;;;;;5062448;28;61786;-77
2022/12/06 03:08:15;;;;;;;;;32.25;26.50;;;;;;;;5062403;28;62136;-77
2022/12/06 03:10:45;;;;;;;;;33.25;25.50;;;;;;;;5061552;28;61847;-78
2022/12/06 03:13:16;;;;;;;;;33.75;25.25;;;;;;;;5044424;28;61930;-78
2022/12/06 03:15:45;;;;;;;;;39.50;30.75;;;;;;;;5062168;28;61810;-78
2022/12/06 03:18:10;;;;;;;;;33.00;24.75;;;;;;;;5062666;28;61599;-78
2022/12/06 03:20:42;;;;;;;;;40.50;27.00;;;;;;;;5060806;28;61806;-78
2022/12/06 03:23:10;;;;;;;;;32.75;25.75;;;;;;;;5061893;28;61947;-78
2022/12/06 03:25:36;;;;;;;;;42.75;25.75;;;;;;;;5062302;28;61968;-78
2022/12/06 03:28:03;;;;;;;;;31.00;25.50;;;;;;;;5044142;28;62681;-78
2022/12/06 03:30:30;;;;;;;;;32.50;26.50;;;;;;;;5061684;28;62010;-78
2022/12/06 03:32:56;;;;;;;;;32.25;24.75;;;;;;;;5061645;28;61834;-78
2022/12/06 03:35:24;;;;;;;;;27.50;25.25;;;;;;;;5061870;28;61920;-78
2022/12/06 03:37:53;;;;;;;;;37.25;23.00;;;;;;;;5061971;28;61991;-77
2022/12/06 03:40:22;;;;;;;;;40.25;28.25;;;;;;;;5061541;28;61949;-78
2022/12/06 03:42:48;;;;;;;;;27.25;22.75;;;;;;;;5061739;28;61859;-78
2022/12/06 03:45:13;;;;;;;;;29.25;24.00;;;;;;;;5043797;28;61842;-78
2022/12/06 03:47:42;;;;;;;;;34.75;24.50;;;;;;;;5062417;28;61880;-78
2022/12/06 03:50:10;;;;;;;;;37.75;27.50;;;;;;;;5061027;28;62054;-78
2022/12/06 03:52:35;;;;;;;;;28.50;21.00;;;;;;;;5061312;28;62144;-78
2022/12/06 03:55:01;;;;;;;;;42.25;28.50;;;;;;;;5043475;28;61951;-78
2022/12/06 03:57:26;;;;;;;;;29.75;22.00;;;;;;;;5062241;28;62132;-78
2022/12/06 03:59:51;;;;;;;;;29.00;22.50;;;;;;;;5042912;28;65170;-78
2022/12/06 04:02:17;;;;;;;;;21.75;21.25;;;;;;;;5077461;28;61829;-78
2022/12/06 04:04:42;;;;;;;;;25.50;19.75;;;;;;;;5061713;28;61791;-78
2022/12/06 04:07:08;;;;;;;;;31.25;21.25;;;;;;;;5060976;28;62004;-78
2022/12/06 04:09:51;;;;;;;;;35.25;23.00;;;;;;;;5043166;28;63704;-78
2022/12/06 04:15:01;;;;;;;;;27.75;20.25;;;;;;;;5061539;28;61942;-78
2022/12/06 04:20:10;;;;;;;;;32.00;26.50;;;;;;;;5060425;28;62380;-78
2022/12/06 04:25:20;;;;;;;;;42.00;31.00;;;;;;;;5061389;28;61612;-78
2022/12/06 04:38:41;;;;;;;;;30.00;27.50;;;;;;;;5065271;28;62364;-78
2022/12/06 04:41:07;;;;;;;;;31.50;21.00;;;;;;;;5046011;28;63703;-78
2022/12/06 04:43:42;;;;;;;;;27.50;23.50;;;;;;;;5064891;28;62092;-77
2022/12/06 04:46:11;;;;;;;;;27.25;21.50;;;;;;;;5064842;28;62088;-78
2022/12/06 04:48:37;;;;;;;;;30.75;22.50;;;;;;;;5064070;28;61764;-78
2022/12/06 04:51:02;;;;;;;;;29.25;19.00;;;;;;;;5063880;28;61870;-78
2022/12/06 04:53:28;;;;;;;;;25.50;22.00;;;;;;;;5064063;28;61726;-77
2022/12/06 04:55:53;;;;;;;;;34.25;20.25;;;;;;;;5064591;28;61750;-78
2022/12/06 04:58:18;;;;;;;;;28.25;19.25;;;;;;;;5046738;28;61741;-78
2022/12/06 05:00:44;;;;;;;;;26.75;21.00;;;;;;;;5063774;28;61784;-78
2022/12/06 05:03:10;;;;;;;;;27.25;22.00;;;;;;;;5064365;28;61729;-78
2022/12/06 05:05:37;;;;;;;;;27.50;17.50;;;;;;;;5064122;28;61711;-78
2022/12/06 05:08:04;;;;;;;;;26.75;18.00;;;;;;;;5046124;28;61804;-78
2022/12/06 05:10:30;;;;;;;;;29.00;22.50;;;;;;;;5045555;28;63458;-78
2022/12/06 05:12:55;;;;;;;;;33.50;22.75;;;;;;;;5046311;28;61831;-78
2022/12/06 05:15:20;;;;;;;;;30.75;21.25;;;;;;;;5063697;28;61959;-78
2022/12/06 05:17:45;;;;;;;;;30.75;19.75;;;;;;;;5064378;28;61892;-78
2022/12/06 05:20:13;;;;;;;;;28.00;18.25;;;;;;;;5044970;28;63170;-78
2022/12/06 05:22:38;;;;;;;;;31.00;19.50;;;;;;;;5063799;28;61813;-78
2022/12/06 05:25:04;;;;;;;;;30.50;21.50;;;;;;;;5064191;28;62211;-78
2022/12/06 05:27:29;;;;;;;;;34.00;26.50;;;;;;;;5046112;28;61789;-78
2022/12/06 05:29:54;;;;;;;;;22.50;20.00;;;;;;;;5045107;28;64994;-78
2022/12/06 05:32:19;;;;;;;;;33.00;26.50;;;;;;;;5063898;28;61774;-78
2022/12/06 05:34:45;;;;;;;;;34.75;26.75;;;;;;;;5044922;28;61929;-78
2022/12/06 05:37:10;;;;;;;;;38.50;23.00;;;;;;;;5063765;28;61690;-78
2022/12/06 05:39:35;;;;;;;;;36.75;25.00;;;;;;;;5045232;28;63730;-78
2022/12/06 05:42:01;;;;;;;;;32.00;22.00;;;;;;;;5063245;28;61879;-79
2022/12/06 05:44:26;;;;;;;;;25.75;22.25;;;;;;;;5063637;28;61751;-78
2022/12/06 05:46:52;;;;;;;;;33.25;20.75;;;;;;;;5063426;28;62149;-78
2022/12/06 05:49:17;;;;;;;;;35.00;24.00;;;;;;;;5062632;28;62746;-78
2022/12/06 05:51:43;;;;;;;;;28.75;22.00;;;;;;;;5063615;28;62145;-78
2022/12/06 05:54:08;;;;;;;;;40.25;25.00;;;;;;;;5063694;28;61985;-78
2022/12/06 05:56:33;;;;;;;;;27.50;24.00;;;;;;;;5063773;28;61796;-78
2022/12/06 05:58:58;;;;;;;;;33.75;26.25;;;;;;;;5044488;28;63789;-78
2022/12/06 06:01:24;;;;;;;;;28.00;20.50;;;;;;;;5063353;28;61859;-78
2022/12/06 06:03:49;;;;;;;;;32.75;25.50;;;;;;;;5063219;28;61621;-78
2022/12/06 06:06:14;;;;;;;;;34.50;23.00;;;;;;;;5079122;28;62076;-77
2022/12/06 06:08:40;;;;;;;;;29.75;23.75;;;;;;;;5078390;28;64132;-79
2022/12/06 06:11:05;;;;;;;;;27.25;23.25;;;;;;;;5044669;28;61853;-79
2022/12/06 06:13:30;;;;;;;;;32.25;25.50;;;;;;;;5078997;28;61904;-78
2022/12/06 06:15:56;;;;;;;;;41.25;30.75;;;;;;;;5063425;28;62205;-78
2022/12/06 06:18:21;;;;;;;;;29.25;24.50;;;;;;;;5044871;28;65210;-79
2022/12/06 06:20:50;;;;;;;;;45.75;27.75;;;;;;;;5044758;28;62134;-78
2022/12/06 06:23:15;;;;;;;;;33.25;28.50;;;;;;;;5063124;28;61941;-80
2022/12/06 06:25:41;;;;;;;;;36.50;28.25;;;;;;;;5063624;28;61803;-78
2022/12/06 06:28:06;;;;;;;;;43.75;29.50;;;;;;;;5062348;28;61942;-79
2022/12/06 06:30:31;;;;;;;;;34.75;25.75;;;;;;;;5062731;28;61877;-76
2022/12/06 06:32:56;;;;;;;;;39.00;30.75;;;;;;;;5060901;28;62134;-79
2022/12/06 06:35:22;;;;;;;;;41.25;31.50;;;;;;;;5061743;28;61892;-76
2022/12/06 06:37:47;;;;;;;;;27.00;24.00;;;;;;;;5061340;28;61958;-76
2022/12/06 06:40:12;;;;;;;;;39.25;30.00;;;;;;;;5062657;28;61437;-76
2022/12/06 06:42:38;;;;;;;;;32.75;26.75;;;;;;;;5062319;28;61910;-76
2022/12/06 06:45:04;;;;;;;;;34.75;26.75;;;;;;;;5043887;28;62277;-80
2022/12/06 06:47:29;;;;;;;;;43.50;34.00;;;;;;;;5043892;28;63864;-79
2022/12/06 06:49:54;;;;;;;;;44.50;28.25;;;;;;;;5058211;28;61699;-79
2022/12/06 06:52:19;;;;;;;;;40.75;26.50;;;;;;;;5057121;28;61916;-79
2022/12/06 06:54:45;;;;;;;;;36.75;26.75;;;;;;;;5041963;28;62587;-79
2022/12/06 06:57:10;;;;;;;;;46.50;27.25;;;;;;;;5042157;28;64636;-78
2022/12/06 06:59:35;;;;;;;;;32.75;29.00;;;;;;;;5043656;28;61813;-77
2022/12/06 07:02:00;;;;;;;;;48.50;32.00;;;;;;;;5078003;28;61836;-77
2022/12/06 07:04:25;;;;;;;;;37.00;25.25;;;;;;;;5062062;28;62135;-77
2022/12/06 07:06:51;;;;;;;;;30.75;25.25;;;;;;;;5061064;28;61843;-77
2022/12/06 07:09:16;;;;;;;;;40.25;33.00;;;;;;;;5077868;28;62044;-77
2022/12/06 07:11:41;;;;;;;;;40.75;30.50;;;;;;;;5062339;28;62341;-77
2022/12/06 07:14:07;;;;;;;;;37.00;29.50;;;;;;;;5062203;28;61973;-77
2022/12/06 07:16:32;;;;;;;;;35.00;30.50;;;;;;;;5061308;28;62865;-77
2022/12/06 07:18:57;;;;;;;;;41.25;35.25;;;;;;;;5043683;28;61894;-77
2022/12/06 07:21:23;;;;;;;;;35.50;29.75;;;;;;;;5061920;28;61929;-77
2022/12/06 07:23:48;;;;;;;;;42.00;30.25;;;;;;;;5062271;28;61991;-77
2022/12/06 07:26:15;;;;;;;;;35.75;29.50;;;;;;;;5061672;28;62281;-77
2022/12/06 07:28:41;;;;;;;;;37.50;32.25;;;;;;;;5061510;28;61764;-77
2022/12/06 07:31:11;;;;;;;;;44.75;30.50;;;;;;;;5061967;28;61884;-77
2022/12/06 07:33:36;;;;;;;;;43.00;35.50;;;;;;;;5061753;28;61734;-77
2022/12/06 07:36:02;;;;;;;;;36.50;31.50;;;;;;;;5043143;28;63739;-77
2022/12/06 07:38:27;;;;;;;;;34.75;30.25;;;;;;;;5061150;28;61819;-77
2022/12/06 07:40:53;;;;;;;;;48.25;34.00;;;;;;;;5061803;28;61829;-78
2022/12/06 07:46:08;;;;;;;;;47.50;31.25;;;;;;;;5060992;28;62486;-76
2022/12/06 07:48:33;;;;;;;;;48.25;30.50;;;;;;;;5060764;28;61752;-78
2022/12/06 07:51:02;;;;;;;;;42.75;27.75;;;;;;;;5043303;28;61936;-78
2022/12/06 07:53:27;;;;;;;;;46.50;36.25;;;;;;;;5060911;28;61914;-78
2022/12/06 07:55:53;;;;;;;;;33.50;26.00;;;;;;;;5060443;28;62643;-78
2022/12/06 07:58:18;;;;;;;;;35.75;26.75;;;;;;;;5060869;28;61896;-78
2022/12/06 08:00:43;;;;;;;;;37.75;27.25;;;;;;;;5060793;28;61826;-78
2022/12/06 08:03:09;;;;;;;;;39.50;29.00;;;;;;;;5061741;28;62050;-78
2022/12/06 08:05:34;;;;;;;;;40.50;26.00;;;;;;;;5061575;28;61874;-78
2022/12/06 08:08:00;;;;;;;;;42.50;26.75;;;;;;;;5064142;28;62018;-78
2022/12/06 08:10:25;;;;;;;;;37.75;31.25;;;;;;;;5065374;28;61904;-78
2022/12/06 08:12:50;;;;;;;;;40.25;31.25;;;;;;;;5046525;28;61699;-78
2022/12/06 08:15:15;;;;;;;;;40.00;28.50;;;;;;;;5063790;28;62312;-78
2022/12/06 08:17:41;;;;;;;;;43.25;31.00;;;;;;;;5065009;28;62016;-78
2022/12/06 08:20:07;;;;;;;;;30.50;23.25;;;;;;;;5064582;28;62138;-78
2022/12/06 08:22:32;;;;;;;;;35.00;27.25;;;;;;;;5046775;28;62077;-78
2022/12/06 08:24:58;;;;;;;;;32.25;28.00;;;;;;;;5063737;28;62162;-78
2022/12/06 08:27:23;;;;;;;;;40.75;28.75;;;;;;;;5046503;28;61917;-78
2022/12/06 08:29:48;;;;;;;;;29.00;18.75;;;;;;;;5064940;28;62080;-79
2022/12/06 08:32:13;;;;;;;;;34.50;28.75;;;;;;;;5064772;28;61725;-79
2022/12/06 08:34:39;;;;;;;;;43.75;37.00;;;;;;;;5063864;28;61731;-80
2022/12/06 08:37:04;;;;;;;;;51.25;37.75;;;;;;;;5079278;28;61864;-77
2022/12/06 08:39:29;;;;;;;;;46.25;34.00;;;;;;;;5046407;28;61868;-78
2022/12/06 08:41:56;;;;;;;;;44.50;38.50;;;;;;;;5046140;28;62201;-78
2022/12/06 08:44:22;;;;;;;;;54.75;41.75;;;;;;;;5064065;28;62496;-78
2022/12/06 08:46:47;;;;;;;;;49.00;34.50;;;;;;;;5046014;28;62004;-78
2022/12/06 08:49:13;;;;;;;;;47.50;35.50;;;;;;;;5063748;28;61857;-78
2022/12/06 08:51:38;;;;;;;;;46.25;34.75;;;;;;;;5064280;28;61774;-78
2022/12/06 08:54:04;;;;;;;;;50.25;37.75;;;;;;;;5063091;28;62143;-78
2022/12/06 08:56:30;;;;;;;;;50.00;39.75;;;;;;;;5045613;28;61956;-78
2022/12/06 08:58:55;;;;;;;;;60.75;42.75;;;;;;;;5046001;28;61864;-78
2022/12/06 09:01:23;;;;;;;;;52.00;34.50;;;;;;;;5046177;28;62145;-78
2022/12/06 09:03:48;;;;;;;;;40.25;35.00;;;;;;;;5063638;28;61889;-78
2022/12/06 09:06:13;;;;;;;;;48.75;36.00;;;;;;;;5063815;28;61726;-78
2022/12/06 09:08:39;;;;;;;;;49.50;32.50;;;;;;;;5063592;28;62130;-78
2022/12/06 09:11:05;;;;;;;;;45.00;36.25;;;;;;;;5045776;28;61795;-78
2022/12/06 09:13:31;;;;;;;;;52.00;38.75;;;;;;;;5063317;28;62761;-78
2022/12/06 09:15:56;;;;;;;;;56.75;40.50;;;;;;;;5045463;28;62412;-78
2022/12/06 09:18:21;;;;;;;;;53.50;40.00;;;;;;;;5063021;28;61797;-78
2022/12/06 09:20:46;;;;;;;;;43.50;39.75;;;;;;;;5063862;28;61769;-78
2022/12/06 09:23:12;;;;;;;;;55.50;37.50;;;;;;;;5062906;28;62100;-78
2022/12/06 09:25:39;;;;;;;;;44.25;35.50;;;;;;;;5079143;28;61762;-78
2022/12/06 09:28:05;;;;;;;;;39.75;35.75;;;;;;;;5063432;28;61948;-78
2022/12/06 09:30:30;;;;;;;;;50.75;35.75;;;;;;;;5045744;28;62188;-78
2022/12/06 09:32:55;;;;;;;;;48.25;35.75;;;;;;;;5062417;28;62357;-78
2022/12/06 09:35:21;;;;;;;;;37.50;36.00;;;;;;;;5062836;28;61949;-78
2022/12/06 09:37:46;;;;;;;;;49.75;36.75;;;;;;;;5063001;28;62028;-79
2022/12/06 09:40:28;;;;;;;;;36.25;31.75;;;;;;;;5063249;28;62031;-78
2022/12/06 09:43:09;;;;;;;;;37.75;29.75;;;;;;;;5042820;28;61982;-78
2022/12/06 09:45:42;;;;;;;;;44.25;32.75;;;;;;;;5043277;28;61811;-78
2022/12/06 09:48:07;;;;;;;;;38.25;31.00;;;;;;;;5046309;28;62118;-78
2022/12/06 09:50:52;;;;;;;;;35.50;31.25;;;;;;;;5063336;28;62005;-78
2022/12/06 09:53:36;;;;;;;;;62.75;37.75;;;;;;;;5044036;28;64088;-78
2022/12/06 09:56:13;;;;;;;;;46.00;32.00;;;;;;;;5063077;28;61732;-78
2022/12/06 09:58:41;;;;;;;;;54.00;40.75;;;;;;;;5063641;28;61761;-78
2022/12/06 10:01:22;;;;;;;;;48.25;35.75;;;;;;;;5063472;28;61989;-78
2022/12/06 10:04:05;;;;;;;;;29.75;29.75;;;;;;;;5062735;28;61811;-78
2022/12/06 10:06:36;;;;;;;;;36.75;32.25;;;;;;;;5044335;28;61783;-78
2022/12/06 10:09:17;;;;;;;;;57.50;37.50;;;;;;;;5062843;28;61874;-78
2022/12/06 10:11:53;;;;;;;;;60.50;40.00;;;;;;;;5063526;28;62116;-78
2022/12/06 10:14:27;;;;;;;;;55.75;38.00;;;;;;;;5044544;28;63917;-78
2022/12/06 10:16:58;;;;;;;;;49.50;27.25;;;;;;;;5062871;28;61907;-78
2022/12/06 10:19:42;;;;;;;;;48.75;34.00;;;;;;;;5062624;28;62185;-78
2022/12/06 10:22:26;;;;;;;;;37.75;31.50;;;;;;;;5061751;28;62569;-78
2022/12/06 10:24:58;;;;;;;;;39.25;30.75;;;;;;;;5057586;28;64143;-78
2022/12/06 10:27:35;;;;;;;;;51.00;34.75;;;;;;;;5044651;28;62168;-78
2022/12/06 10:30:03;;;;;;;;;42.75;36.25;;;;;;;;5062503;28;62277;-77
2022/12/06 10:32:35;;;;;;;;;48.00;33.25;;;;;;;;5062722;28;62105;-77
2022/12/06 10:35:14;;;;;;;;;33.00;29.75;;;;;;;;5043896;28;65002;-77
2022/12/06 10:37:39;;;;;;;;;48.50;38.50;;;;;;;;5043975;28;61805;-77
2022/12/06 10:40:17;;;;;;;;;51.25;35.75;;;;;;;;5044588;28;61800;-77
2022/12/06 10:42:57;;;;;;;;;38.50;32.25;;;;;;;;5062610;28;62138;-77
2022/12/06 10:48:11;;;;;;;;;58.25;38.50;;;;;;;;5062867;28;61688;-77
2022/12/06 10:50:38;;;;;;;;;44.50;36.50;;;;;;;;5061956;28;61761;-77
2022/12/06 10:53:08;;;;;;;;;44.25;35.25;;;;;;;;5061965;28;62008;-77
2022/12/06 10:55:38;;;;;;;;;58.75;39.25;;;;;;;;5061830;28;61919;-77
2022/12/06 10:58:16;;;;;;;;;50.50;39.00;;;;;;;;5062605;28;61709;-77
2022/12/06 11:00:53;;;;;;;;;45.25;36.75;;;;;;;;5062208;28;61761;-77
2022/12/06 11:03:25;;;;;;;;;50.00;37.25;;;;;;;;5044486;28;61736;-77
2022/12/06 11:05:53;;;;;;;;;54.00;36.50;;;;;;;;5060887;28;62847;-77
2022/12/06 11:08:34;;;;;;;;;55.00;40.25;;;;;;;;5061636;28;61917;-78
2022/12/06 11:11:00;;;;;;;;;50.50;36.00;;;;;;;;5062132;28;61804;-79
2022/12/06 11:13:46;;;;;;;;;44.25;38.25;;;;;;;;5077295;28;62287;-77
2022/12/06 11:16:12;;;;;;;;;57.75;39.25;;;;;;;;5043360;28;63954;-77
2022/12/06 11:18:38;;;;;;;;;52.00;32.25;;;;;;;;5077628;28;62222;-77
2022/12/06 11:21:11;;;;;;;;;42.00;31.50;;;;;;;;5061857;28;61763;-77
2022/12/06 11:23:55;;;;;;;;;60.50;40.75;;;;;;;;5061973;28;62122;-77
2022/12/06 11:26:39;;;;;;;;;41.50;33.50;;;;;;;;5061305;28;61942;-77
2022/12/06 11:29:08;;;;;;;;;50.50;41.00;;;;;;;;5061998;28;61684;-77
2022/12/06 11:31:48;;;;;;;;;47.50;31.25;;;;;;;;5044033;28;62486;-77
2022/12/06 11:34:17;;;;;;;;;44.75;34.00;;;;;;;;5062024;28;61628;-78
2022/12/06 11:36:43;;;;;;;;;53.25;35.25;;;;;;;;5027177;28;64844;-78
2022/12/06 11:39:10;;;;;;;;;49.75;36.50;;;;;;;;5041423;28;61842;-76
2022/12/06 11:41:36;;;;;;;;;49.00;39.75;;;;;;;;5044099;28;61941;-77
2022/12/06 11:44:01;;;;;;;;;53.00;35.25;;;;;;;;5062263;28;61855;-79
2022/12/06 11:46:27;;;;;;;;;55.75;41.25;;;;;;;;5065101;28;61773;-79
2022/12/06 11:48:53;;;;;;;;;51.00;40.25;;;;;;;;5047089;28;62040;-79
2022/12/06 11:51:20;;;;;;;;;62.75;45.25;;;;;;;;5047181;28;61927;-80
2022/12/06 11:54:04;;;;;;;;;63.00;45.75;;;;;;;;5065309;28;62001;-79
2022/12/06 11:56:36;;;;;;;;;56.00;38.75;;;;;;;;5064580;28;61888;-79
2022/12/06 11:59:14;;;;;;;;;58.75;38.00;;;;;;;;5065360;28;61845;-77
2022/12/06 12:01:39;;;;;;;;;62.00;41.75;;;;;;;;5061375;28;62601;-78
2022/12/06 12:04:21;;;;;;;;;44.50;34.00;;;;;;;;5063581;28;62226;-77
2022/12/06 12:06:46;;;;;;;;;53.50;41.25;;;;;;;;5061846;28;62055;-78
2022/12/06 12:09:21;;;;;;;;;52.00;39.00;;;;;;;;5064542;28;61671;-77
2022/12/06 12:11:53;;;;;;;;;53.25;34.50;;;;;;;;5045513;28;62046;-77
2022/12/06 12:14:24;;;;;;;;;61.25;43.00;;;;;;;;5044775;28;62957;-78
2022/12/06 12:16:55;;;;;;;;;64.50;43.75;;;;;;;;5062160;28;62265;-80
2022/12/06 12:19:29;;;;;;;;;69.50;42.75;;;;;;;;5062051;28;62239;-77
2022/12/06 12:21:57;;;;;;;;;50.50;42.00;;;;;;;;5045285;28;61797;-77
2022/12/06 12:24:40;;;;;;;;;60.75;43.75;;;;;;;;5045612;28;62072;-78
2022/12/06 12:27:28;;;;;;;;;50.00;42.00;;;;;;;;5077160;28;62674;-78
2022/12/06 12:30:13;;;;;;;;;61.75;41.75;;;;;;;;5045993;28;61996;-82
2022/12/06 12:32:38;;;;;;;;;55.75;44.25;;;;;;;;5045691;28;62297;-77
2022/12/06 12:35:27;;;;;;;;;58.50;42.75;;;;;;;;5063269;28;61889;-77
2022/12/06 12:38:18;;;;;;;;;61.00;41.50;;;;;;;;5078182;28;62820;-79
2022/12/06 12:40:52;;;;;;;;;61.25;42.50;;;;;;;;5060957;28;61837;-78
2022/12/06 12:43:31;;;;;;;;;67.75;45.50;;;;;;;;5046046;28;61974;-77
2022/12/06 12:46:13;;;;;;;;;61.75;44.00;;;;;;;;5064042;28;61983;-80
2022/12/06 12:48:40;;;;;;;;;55.75;41.25;;;;;;;;5063455;28;61813;-79
2022/12/06 12:51:20;;;;;;;;;56.25;42.50;;;;;;;;5064743;28;61868;-80
2022/12/06 12:53:45;;;;;;;;;61.75;38.50;;;;;;;;5062740;28;61722;-78
2022/12/06 12:56:15;;;;;;;;;66.00;46.50;;;;;;;;5064599;28;61901;-78
2022/12/06 12:58:41;;;;;;;;;66.25;42.00;;;;;;;;5045777;28;63071;-78
2022/12/06 13:01:25;;;;;;;;;54.75;43.00;;;;;;;;5064276;28;61947;-78
2022/12/06 13:03:56;;;;;;;;;61.50;45.75;;;;;;;;5064046;28;61670;-78
2022/12/06 13:06:33;;;;;;;;;61.75;42.75;;;;;;;;5046334;28;61830;-79
2022/12/06 13:09:01;;;;;;;;;58.50;41.75;;;;;;;;5061784;28;63010;-78
2022/12/06 13:11:27;;;;;;;;;51.50;43.50;;;;;;;;5045857;28;62063;-78
2022/12/06 13:13:53;;;;;;;;;68.00;47.00;;;;;;;;5064073;28;61766;-79
2022/12/06 13:16:22;;;;;;;;;70.75;49.00;;;;;;;;5064179;28;61725;-79
2022/12/06 13:18:50;;;;;;;;;60.25;42.50;;;;;;;;5062640;28;62974;-79
2022/12/06 13:21:36;;;;;;;;;55.75;41.25;;;;;;;;5063972;28;61761;-79
2022/12/06 13:24:11;;;;;;;;;67.75;44.75;;;;;;;;5063610;28;61859;-78
2022/12/06 13:26:48;;;;;;;;;58.00;40.50;;;;;;;;5045065;28;62188;-78
2022/12/06 13:29:19;;;;;;;;;52.25;41.75;;;;;;;;5060012;28;63258;-78
2022/12/06 13:31:47;;;;;;;;;63.75;42.00;;;;;;;;5062848;28;62205;-78
2022/12/06 13:34:31;;;;;;;;;60.75;45.00;;;;;;;;5063497;28;61874;-78
2022/12/06 13:36:57;;;;;;;;;58.50;45.00;;;;;;;;5041211;28;62172;-78
2022/12/06 13:39:32;;;;;;;;;59.50;41.50;;;;;;;;5058478;28;64797;-78
2022/12/06 13:42:17;;;;;;;;;50.75;39.75;;;;;;;;5054474;28;62053;-77
2022/12/06 13:44:51;;;;;;;;;56.75;44.50;;;;;;;;5063623;28;61848;-79
2022/12/06 13:47:26;;;;;;;;;61.00;45.00;;;;;;;;5045333;28;61741;-79
2022/12/06 13:49:52;;;;;;;;;62.25;42.00;;;;;;;;5044176;28;63788;-79
2022/12/06 13:52:36;;;;;;;;;61.00;41.50;;;;;;;;5063086;28;61908;-80
2022/12/06 13:55:31;;;;;;;;;58.00;41.50;;;;;;;;5062865;28;62098;-79
2022/12/06 13:57:59;;;;;;;;;54.50;41.25;;;;;;;;5000733;28;61910;-79
2022/12/06 14:00:30;;;;;;;;;40.00;36.50;;;;;;;;5000396;28;62056;-79
2022/12/06 14:02:56;;;;;;;;;46.25;29.25;;;;;;;;5000390;28;62426;-80
2022/12/06 14:05:40;;;;;;;;;38.25;33.50;;;;;;;;5000492;28;61919;-80
2022/12/06 14:08:08;;;;;;;;;43.25;32.75;;;;;;;;5000243;28;62258;-79
2022/12/06 14:10:34;;;;;;;;;39.25;29.50;;;;;;;;5000508;28;62160;-79
2022/12/06 14:12:59;;;;;;;;;40.50;24.00;;;;;;;;5012121;28;62090;-78
2022/12/06 14:15:25;;;;;;;;;33.75;27.50;;;;;;;;5020364;28;61884;-79
2022/12/06 14:17:51;;;;;;;;;36.75;28.75;;;;;;;;5001884;28;61962;-80
2022/12/06 14:20:24;;;;;;;;;42.00;27.00;;;;;;;;4999608;28;63556;-79
2022/12/06 14:22:50;;;;;;;;;32.75;28.25;;;;;;;;4999814;28;62007;-79
2022/12/06 14:25:15;;;;;;;;;36.25;23.25;;;;;;;;5000420;28;62359;-79
2022/12/06 14:27:44;;;;;;;;;30.75;24.50;;;;;;;;5001064;28;62072;-79
2022/12/06 14:30:13;;;;;;;;;36.50;23.75;;;;;;;;4982821;28;64886;-79
2022/12/06 14:32:42;;;;;;;;;37.75;27.00;;;;;;;;4999739;28;62150;-79
2022/12/06 14:35:10;;;;;;;;;26.25;24.25;;;;;;;;5050623;28;62090;-79
2022/12/06 14:37:36;;;;;;;;;29.00;25.75;;;;;;;;5044528;28;61804;-79
2022/12/06 14:40:11;;;;;;;;;26.75;23.25;;;;;;;;5061954;28;62548;-79
2022/12/06 14:45:20;;;;;;;;;38.25;25.50;;;;;;;;5062241;28;61781;-79
2022/12/06 14:47:45;;;;;;;;;36.50;29.00;;;;;;;;5062427;28;61717;-80
2022/12/06 14:50:31;;;;;;;;;29.75;22.50;;;;;;;;5061579;28;62847;-79
2022/12/06 14:53:05;;;;;;;;;34.75;25.75;;;;;;;;5043392;28;61782;-79